Memphis, TN

10:04 AM CDT on October 25, 2014 (GMT -0500)
Farmington | Change Station
CLOSE
Current Station
Personal Weather Station
Location: Germantown, TN
Elevation: 331 ft
Nearby Weather Stations

Elev 331 ft 35.09 °N, 89.80 °W | Updated 10 seconds ago

Clear
Clear
66.9 °F
Feels Like 66.9 °F
N
0.0
Wind Variable Wind from ESE
Gusts 0.0 mph

Today
High -- | Low -- °F
--% Chance of Precip.
Yesterday
High -- | Low -- °F
Precip. -- in
7:13 AM 6:12 PM
Waxing Crescent, 3% visible
Pressure 30.11 in
Visibility 10.0 miles
Clouds Clear
Dew Point 60 °F
Humidity 78%
Rainfall 0.00 in
Snow Depth Not available.
UV 3 out of 12
Pollen 1.80 out of 12
Ozone Good
PM2.5 Moderate
Flu Activity No Activity
METAR KOLV 251450Z 24006KT 10SM SKC 18/17 A3011

More Conditions Fewer Conditions

Pressure 30.11 in
Visibility 10.0 miles
Clouds Clear
Dew Point 60 °F
Humidity 78%
Rainfall 0.00 in
Snow Depth Not available.
UV 3 out of 12
Pollen 1.80 out of 12
Ozone Good
PM2.5 Moderate
Flu Activity No Activity
METAR KOLV 251450Z 24006KT 10SM SKC 18/17 A3011

More Conditions Fewer Conditions

10-Day Weather Forecast

Almanac

Astronomy

Oct. 25, 2014 Rise Set
Actual Time 7:13 AM CDT 6:12 PM CDT
Civil Twilight 6:48 AM CDT 6:37 PM CDT
Nautical Twilight 6:18 AM CDT 7:07 PM CDT
Astronomical Twilight 5:48 AM CDT 7:37 PM CDT
Moon 8:50 AM CDT 7:38 PM CDT
Length of Visible Light 11h 49m
Length of Day
10h 58m
Tomorrow will be 2m 1s shorter.
Waxing Crescent, 3% of the Moon is Illuminated
Today
Waxing Crescent
Oct 30
First Quarter
Nov 6
Full
Nov 14
Last Quarter
Nov 22
New

Today's Extremes

State Highs State Lows

Community

WunderPhotos

Upload Photos

1,764,867 photos uploaded!

Nearby

Air Quality

  Air Quality AQ Index Pollutant
Yesterday Moderate
PM2.5
Yesterday Good
OZONE
Current Moderate
PM2.5
Current Good
OZONE
Saturday Moderate
PM2.5
Saturday Good
OZONE
Sunday Moderate
PM2.5
Sunday Good
OZONE

Snow Depth

Station Depth Elevation
No new snow has been reported.

Earthquake Activity

City Distance Mag. Time & Date
No recent earthquake activity has been reported nearby.
Minimum magnitude displayed is 2.5.

Coastal Water Temperatures

Place Temperature
No Stations Reporting

Nearby Weather Stations